Terminal Aerodrome Forecast
Issued by NWS Omaha/Valley, NE

Home | Current Version | Previous Version | Graphics & Text | Print | Product List | Glossary On
Versions: 1 2 3 4 5 6 7 8 9 10 11 12 13 14 15 16 17 18 19 20 21 22 23 24 25 26 27 28 29 30 31 32 33 34 35 36 37 38 39
000
FTUS43 KOAX 151724
TAFOFK
TAF
KOFK 151724Z 1518/1618 14015G23KT P6SM OVC050
     FM160200 13009KT P6SM OVC015
     FM160800 12005KT 4SM BR OVC007
     FM161200 06004KT 2SM BR OVC003
     FM161300 09004KT 4SM BR OVC003
     FM161500 11007KT 6SM HZ OVC015=

USA.gov is the U.S. government's official web portal to all federal, state and local government web resources and services.